createdAt,value
2022-11-26T00:00:54.351Z,98.60
2022-11-26T00:03:22.748Z,98.50
2022-11-26T00:05:54.062Z,98.50
2022-11-26T00:08:27.611Z,98.60
2022-11-26T00:10:56.332Z,99.00
2022-11-26T00:13:27.731Z,99.30
2022-11-26T00:15:57.283Z,99.30
2022-11-26T00:18:26.840Z,99.20
2022-11-26T00:20:57.197Z,99.20
2022-11-26T00:23:28.473Z,99.10
2022-11-26T00:25:59.113Z,99.00
2022-11-26T00:28:32.920Z,98.60
2022-11-26T00:31:03.187Z,98.20
2022-11-26T00:33:32.177Z,97.90
2022-11-26T00:36:04.719Z,97.80
2022-11-26T00:38:34.552Z,97.90
2022-11-26T00:41:02.912Z,98.30
2022-11-26T00:43:31.179Z,98.20
2022-11-26T00:45:59.519Z,98.50
2022-11-26T00:48:27.892Z,98.80
2022-11-26T00:50:56.192Z,99.20
2022-11-26T00:53:27.933Z,99.60
2022-11-26T00:55:57.792Z,99.90
2022-11-26T00:58:28.862Z,99.90
2022-11-26T01:00:58.987Z,99.90
2022-11-26T01:03:27.732Z,99.90
2022-11-26T01:05:58.452Z,99.90
2022-11-26T01:08:31.430Z,99.90
2022-11-26T01:11:02.045Z,99.90
2022-11-26T01:13:31.300Z,99.90
2022-11-26T01:16:02.110Z,99.90
2022-11-26T01:18:33.315Z,99.90
2022-11-26T01:21:02.742Z,99.80
2022-11-26T01:23:31.004Z,99.90
2022-11-26T01:26:06.238Z,99.90
2022-11-26T01:28:34.720Z,99.90
2022-11-26T01:31:03.050Z,99.90
2022-11-26T01:33:31.365Z,99.90
2022-11-26T01:35:59.691Z,99.90
2022-11-26T01:38:27.992Z,99.90
2022-11-26T01:41:17.760Z,99.90
2022-11-26T01:43:47.111Z,99.90
2022-11-26T01:46:17.301Z,99.90
2022-11-26T01:48:46.690Z,99.90
2022-11-26T01:51:19.272Z,99.90
2022-11-26T01:53:50.864Z,99.90
2022-11-26T01:56:30.052Z,99.90
2022-11-26T01:59:03.932Z,99.90
2022-11-26T02:01:33.111Z,99.90
2022-11-26T02:04:10.376Z,99.90
2022-11-26T02:06:38.722Z,99.90
2022-11-26T02:09:10.129Z,99.90
2022-11-26T02:11:40.576Z,99.90
2022-11-26T02:14:15.301Z,99.90
2022-11-26T02:17:07.542Z,99.90
2022-11-26T02:20:18.405Z,99.90
2022-11-26T02:23:19.295Z,99.90
2022-11-26T02:26:10.872Z,99.90
2022-11-26T02:29:01.272Z,99.90
2022-11-26T02:31:36.879Z,99.90
2022-11-26T02:34:14.799Z,99.90
2022-11-26T02:36:49.689Z,99.90
2022-11-26T02:39:20.394Z,99.90
2022-11-26T02:41:52.231Z,99.90
2022-11-26T02:44:23.232Z,99.90
2022-11-26T02:46:56.770Z,99.90
2022-11-26T02:49:25.331Z,99.90
2022-11-26T02:51:58.506Z,99.90
2022-11-26T02:54:28.326Z,99.90
2022-11-26T02:56:58.160Z,99.90
2022-11-26T02:59:26.723Z,99.90
2022-11-26T03:02:00.919Z,99.90
2022-11-26T03:04:34.573Z,99.90
2022-11-26T03:07:05.759Z,99.90
2022-11-26T03:09:41.507Z,99.90
2022-11-26T03:12:10.156Z,99.90
2022-11-26T03:14:38.814Z,99.90
2022-11-26T03:17:08.750Z,99.90
2022-11-26T03:19:37.113Z,99.90
2022-11-26T03:22:05.942Z,99.90
2022-11-26T03:24:34.674Z,99.90
2022-11-26T03:27:03.021Z,99.90
2022-11-26T03:29:31.673Z,99.90
2022-11-26T03:32:00.286Z,99.90
2022-11-26T03:34:29.887Z,99.90
2022-11-26T03:36:58.170Z,99.90
2022-11-26T03:39:26.508Z,99.90
2022-11-26T03:41:54.748Z,99.90
2022-11-26T03:44:23.229Z,99.90
2022-11-26T03:46:51.593Z,99.90
2022-11-26T03:49:19.851Z,99.90
2022-11-26T03:51:49.441Z,99.90
2022-11-26T03:54:17.710Z,99.90
2022-11-26T03:56:46.060Z,99.90
2022-11-26T03:59:14.399Z,99.90
2022-11-26T04:01:42.866Z,99.90
2022-11-26T04:04:11.313Z,99.90
2022-11-26T04:06:39.722Z,99.90
2022-11-26T04:09:09.287Z,99.90
2022-11-26T04:11:37.611Z,99.90
2022-11-26T04:14:05.972Z,99.90
2022-11-26T04:16:34.449Z,99.90
2022-11-26T04:19:02.770Z,99.90
2022-11-26T04:21:30.980Z,99.90
2022-11-26T04:23:59.333Z,99.90
2022-11-26T04:26:28.880Z,99.90
2022-11-26T04:28:57.161Z,99.90
2022-11-26T04:31:25.523Z,99.90
2022-11-26T04:33:54.022Z,99.90
2022-11-26T04:36:22.325Z,99.90
2022-11-26T04:38:50.692Z,99.90
2022-11-26T04:41:18.992Z,99.90
2022-11-26T04:43:48.657Z,99.90
2022-11-26T04:46:16.988Z,99.90
2022-11-26T04:48:45.346Z,99.90
2022-11-26T04:51:13.735Z,99.90
2022-11-26T04:53:42.030Z,99.90
2022-11-26T04:56:10.323Z,99.90
2022-11-26T04:58:38.662Z,99.90
2022-11-26T05:01:08.738Z,99.90
2022-11-26T05:03:37.360Z,99.90
2022-11-26T05:06:06.074Z,99.90
2022-11-26T05:08:34.343Z,99.90
2022-11-26T05:11:03.279Z,99.90
2022-11-26T05:13:31.751Z,99.90
2022-11-26T05:16:00.097Z,99.90
2022-11-26T05:18:29.705Z,99.90
2022-11-26T05:20:58.089Z,99.90
2022-11-26T05:23:26.403Z,99.90
2022-11-26T05:25:54.675Z,99.90
2022-11-26T05:28:23.022Z,99.90
2022-11-26T05:30:51.407Z,99.90
2022-11-26T05:33:19.823Z,99.90
2022-11-26T05:35:49.483Z,99.90
2022-11-26T05:38:17.761Z,99.90
2022-11-26T05:40:46.051Z,99.90
2022-11-26T05:43:14.384Z,99.90
2022-11-26T05:45:42.922Z,99.90
2022-11-26T05:48:11.240Z,99.90
2022-11-26T05:50:39.594Z,99.90
2022-11-26T05:53:09.300Z,99.90
2022-11-26T05:55:37.641Z,99.90
2022-11-26T05:58:05.912Z,99.90
2022-11-26T06:00:34.273Z,99.90
2022-11-26T06:03:02.773Z,99.90
2022-11-26T06:05:31.122Z,99.90
2022-11-26T06:07:59.836Z,99.90
2022-11-26T06:10:29.613Z,99.90
2022-11-26T06:12:57.924Z,99.90
2022-11-26T06:15:26.280Z,99.90
2022-11-26T06:17:54.575Z,99.90
2022-11-26T06:20:22.974Z,99.90
2022-11-26T06:22:51.251Z,99.90
2022-11-26T06:25:19.921Z,99.90
2022-11-26T06:27:49.593Z,99.90
2022-11-26T06:30:17.937Z,99.90
2022-11-26T06:32:46.191Z,99.90
2022-11-26T06:35:14.660Z,99.90
2022-11-26T06:37:43.243Z,99.90
2022-11-26T06:40:18.011Z,99.90
2022-11-26T06:42:51.041Z,99.90
2022-11-26T06:45:19.356Z,99.90
2022-11-26T06:47:48.123Z,99.90
2022-11-26T06:50:17.130Z,99.90
2022-11-26T06:52:45.463Z,99.90
2022-11-26T06:55:13.739Z,99.90
2022-11-26T06:57:41.979Z,99.90
2022-11-26T07:00:12.822Z,99.90
2022-11-26T07:02:42.347Z,99.90
2022-11-26T07:05:10.864Z,99.90
2022-11-26T07:07:40.414Z,99.90
2022-11-26T07:10:09.481Z,99.90
2022-11-26T07:12:37.880Z,99.90
2022-11-26T07:15:06.819Z,99.90
2022-11-26T07:17:36.465Z,99.90
2022-11-26T07:20:05.212Z,99.90
2022-11-26T07:22:35.288Z,99.90
2022-11-26T07:25:06.040Z,99.90
2022-11-26T07:27:36.562Z,99.90
2022-11-26T07:30:05.384Z,99.90
2022-11-26T07:32:33.722Z,99.90
2022-11-26T07:35:07.753Z,99.90
2022-11-26T07:37:36.440Z,99.90
2022-11-26T07:40:05.863Z,99.90
2022-11-26T07:42:34.632Z,99.90
2022-11-26T07:45:03.895Z,99.90
2022-11-26T07:47:32.256Z,99.90
2022-11-26T07:50:00.692Z,99.90
2022-11-26T07:52:30.492Z,99.90
2022-11-26T07:54:58.882Z,99.90
2022-11-26T07:57:27.503Z,99.90
2022-11-26T07:59:55.830Z,99.90
2022-11-26T08:02:24.173Z,99.90
2022-11-26T08:04:52.691Z,99.90
2022-11-26T08:07:26.043Z,99.90
2022-11-26T08:09:58.753Z,99.90
2022-11-26T08:12:27.427Z,99.90
2022-11-26T08:14:55.668Z,99.90
2022-11-26T08:17:24.053Z,99.90
2022-11-26T08:19:52.385Z,99.90
2022-11-26T08:22:20.804Z,99.90
2022-11-26T08:24:49.121Z,99.90
2022-11-26T08:27:19.053Z,99.90
2022-11-26T08:29:47.353Z,99.90
2022-11-26T08:32:15.781Z,99.90
2022-11-26T08:34:44.815Z,99.90
2022-11-26T08:37:13.030Z,99.90
2022-11-26T08:39:41.414Z,99.90
2022-11-26T08:42:09.720Z,99.90
2022-11-26T08:44:39.569Z,99.90
2022-11-26T08:47:08.161Z,99.90
2022-11-26T08:49:36.442Z,99.90
2022-11-26T08:52:04.940Z,99.90
2022-11-26T08:54:33.405Z,99.90
2022-11-26T08:57:01.758Z,99.90
2022-11-26T08:59:30.071Z,99.90
2022-11-26T09:01:59.755Z,99.90
2022-11-26T09:04:28.132Z,99.90
2022-11-26T09:06:56.441Z,99.90
2022-11-26T09:09:24.812Z,99.90
2022-11-26T09:11:57.824Z,99.90
2022-11-26T09:14:28.548Z,99.90
2022-11-26T09:16:58.149Z,99.90
2022-11-26T09:19:29.483Z,99.90
2022-11-26T09:21:57.941Z,99.90
2022-11-26T09:24:26.405Z,99.90
2022-11-26T09:26:55.164Z,99.90
2022-11-26T09:29:25.151Z,99.90
2022-11-26T09:34:43.564Z,99.90
2022-11-26T09:37:11.878Z,99.90
2022-11-26T09:39:40.128Z,99.90
2022-11-26T09:42:10.763Z,99.90
2022-11-26T09:44:56.900Z,99.90
2022-11-26T09:47:28.334Z,99.90
2022-11-26T09:50:08.391Z,99.90
2022-11-26T09:52:42.511Z,99.90
2022-11-26T09:55:16.987Z,99.90
2022-11-26T09:57:50.664Z,99.90
2022-11-26T10:00:27.289Z,99.90
2022-11-26T10:02:57.175Z,99.90
2022-11-26T10:05:37.953Z,99.90
2022-11-26T10:08:15.698Z,99.90
2022-11-26T10:10:52.683Z,99.90
2022-11-26T10:13:29.159Z,99.90
2022-11-26T10:16:08.300Z,99.90
2022-11-26T10:18:46.073Z,99.90
2022-11-26T10:21:32.432Z,99.90
2022-11-26T10:24:17.061Z,99.90
2022-11-26T10:26:45.953Z,99.90
2022-11-26T10:29:24.254Z,99.90
2022-11-26T10:31:58.320Z,99.90
2022-11-26T10:34:37.497Z,99.90
2022-11-26T10:37:09.104Z,99.90
2022-11-26T10:39:37.524Z,99.90
2022-11-26T10:42:10.684Z,99.90
2022-11-26T10:44:41.890Z,99.90
2022-11-26T10:47:27.475Z,99.90
2022-11-26T10:49:58.440Z,99.90
2022-11-26T10:52:30.512Z,99.90
2022-11-26T10:55:19.121Z,99.90
2022-11-26T10:57:52.007Z,99.90
2022-11-26T11:00:45.654Z,99.90
2022-11-26T11:03:25.159Z,99.90
2022-11-26T11:06:26.494Z,99.90
2022-11-26T11:08:56.332Z,99.90
2022-11-26T11:11:26.373Z,99.90
2022-11-26T11:13:55.083Z,99.90
2022-11-26T11:16:29.183Z,99.90
2022-11-26T11:18:59.570Z,99.90
2022-11-26T11:21:34.458Z,99.90
2022-11-26T11:24:15.498Z,99.90
2022-11-26T11:26:45.485Z,99.90
2022-11-26T11:29:32.886Z,99.90
2022-11-26T11:32:04.575Z,99.90
2022-11-26T11:34:35.385Z,99.90
2022-11-26T11:37:10.527Z,99.90
2022-11-26T11:39:42.637Z,99.90
2022-11-26T11:42:21.751Z,99.90
2022-11-26T11:44:52.001Z,99.90
2022-11-26T11:47:35.339Z,99.90
2022-11-26T11:50:18.046Z,99.90
2022-11-26T11:52:59.797Z,99.90
2022-11-26T11:55:40.911Z,99.90
2022-11-26T11:58:36.912Z,99.90
2022-11-26T12:01:15.254Z,99.90
2022-11-26T12:04:12.815Z,99.90
2022-11-26T12:06:55.911Z,99.90
2022-11-26T12:09:28.750Z,99.90
2022-11-26T12:12:02.718Z,99.90
2022-11-26T12:14:37.195Z,99.90
2022-11-26T12:17:13.228Z,99.90
2022-11-26T12:19:48.723Z,99.90
2022-11-26T12:22:21.752Z,99.90
2022-11-26T12:24:53.696Z,99.90
2022-11-26T12:27:31.641Z,99.90
2022-11-26T12:30:04.955Z,99.90
2022-11-26T12:32:37.473Z,99.90
2022-11-26T12:35:12.456Z,99.90
2022-11-26T12:37:43.022Z,99.90
2022-11-26T12:40:25.981Z,99.90
2022-11-26T12:42:59.861Z,99.90
2022-11-26T12:45:41.450Z,99.90
2022-11-26T12:48:19.527Z,99.90
2022-11-26T12:50:53.971Z,99.90
2022-11-26T12:53:38.291Z,99.90
2022-11-26T12:56:15.559Z,99.90
2022-11-26T12:58:53.576Z,99.90
2022-11-26T13:01:24.286Z,99.90
2022-11-26T13:04:14.397Z,99.90
2022-11-26T13:06:59.360Z,99.90
2022-11-26T13:09:42.301Z,99.90
2022-11-26T13:12:19.391Z,99.90
2022-11-26T13:14:55.182Z,99.90
2022-11-26T13:17:29.380Z,99.90
2022-11-26T13:20:06.190Z,99.90
2022-11-26T13:22:49.512Z,99.90
2022-11-26T13:25:37.349Z,99.90
2022-11-26T13:28:17.753Z,99.90
2022-11-26T13:31:02.291Z,99.90
2022-11-26T13:34:11.909Z,99.90
2022-11-26T13:37:00.912Z,99.90
2022-11-26T13:40:03.579Z,99.90
2022-11-26T13:42:54.053Z,99.90
2022-11-26T13:45:58.310Z,99.90
2022-11-26T13:48:37.201Z,99.90
2022-11-26T13:51:12.803Z,99.90
2022-11-26T13:53:47.221Z,99.90
2022-11-26T13:56:16.292Z,99.90
2022-11-26T13:58:49.008Z,99.90
2022-11-26T14:01:35.505Z,99.90
2022-11-26T14:04:07.891Z,99.90
2022-11-26T14:06:37.401Z,99.90
2022-11-26T14:09:06.879Z,99.90
2022-11-26T14:11:58.111Z,99.90
2022-11-26T14:14:37.395Z,99.90
2022-11-26T14:17:25.107Z,99.90
2022-11-26T14:20:12.855Z,99.90
2022-11-26T14:22:41.335Z,99.90
2022-11-26T14:25:12.163Z,99.90
2022-11-26T14:27:44.576Z,99.90
2022-11-26T14:30:29.301Z,99.90
2022-11-26T14:33:15.362Z,99.90
2022-11-26T14:35:55.707Z,99.90
2022-11-26T14:38:27.352Z,99.90
2022-11-26T14:41:00.414Z,99.90
2022-11-26T14:43:29.650Z,99.90
2022-11-26T14:46:05.337Z,99.90
2022-11-26T14:48:36.782Z,99.90
2022-11-26T14:51:09.518Z,99.90
2022-11-26T14:53:44.721Z,99.90
2022-11-26T14:56:13.138Z,99.90
2022-11-26T14:58:45.403Z,99.90
2022-11-26T15:01:21.099Z,99.90
2022-11-26T15:04:00.693Z,99.90
2022-11-26T15:06:35.023Z,99.90
2022-11-26T15:09:15.309Z,99.90
2022-11-26T15:11:48.368Z,99.90
2022-11-26T15:14:27.371Z,99.90
2022-11-26T15:16:59.840Z,99.90
2022-11-26T15:19:31.913Z,99.90
2022-11-26T15:22:03.387Z,99.90
2022-11-26T15:24:32.677Z,99.90
2022-11-26T15:27:00.954Z,99.90
2022-11-26T15:29:41.122Z,99.90
2022-11-26T15:32:28.099Z,99.90
2022-11-26T15:34:58.081Z,99.90
2022-11-26T15:37:28.360Z,99.90
2022-11-26T15:40:11.762Z,99.90
2022-11-26T15:42:40.533Z,99.90
2022-11-26T15:45:16.050Z,99.90
2022-11-26T15:47:48.542Z,99.90
2022-11-26T15:50:28.782Z,99.90
2022-11-26T15:53:03.930Z,99.90
2022-11-26T15:55:36.092Z,99.90
2022-11-26T15:58:09.880Z,99.90
2022-11-26T16:00:41.100Z,99.90
2022-11-26T16:03:45.275Z,99.90
2022-11-26T16:06:33.043Z,99.90
2022-11-26T16:09:06.912Z,99.90
2022-11-26T16:11:37.423Z,99.90
2022-11-26T16:14:29.063Z,99.90
2022-11-26T16:16:58.334Z,99.90
2022-11-26T16:19:29.478Z,99.90
2022-11-26T16:21:58.094Z,99.90
2022-11-26T16:24:32.153Z,99.90
2022-11-26T16:27:02.949Z,99.90
2022-11-26T16:29:32.415Z,99.90
2022-11-26T16:32:01.017Z,99.90
2022-11-26T16:34:30.081Z,99.90
2022-11-26T16:37:03.486Z,99.90
2022-11-26T16:39:39.139Z,99.90
2022-11-26T16:42:15.711Z,99.90
2022-11-26T16:44:44.156Z,99.90
2022-11-26T16:47:16.950Z,99.90
2022-11-26T16:49:45.260Z,99.90
2022-11-26T16:52:16.010Z,99.90
2022-11-26T16:54:45.714Z,99.90
2022-11-26T16:57:16.491Z,99.90
2022-11-26T16:59:45.893Z,99.90
2022-11-26T17:02:17.701Z,99.90
2022-11-26T17:04:46.852Z,99.90
2022-11-26T17:07:16.759Z,99.90
2022-11-26T17:09:46.465Z,99.90
2022-11-26T17:12:19.259Z,99.90
2022-11-26T17:14:48.615Z,99.90
2022-11-26T17:17:23.611Z,99.90
2022-11-26T17:19:53.458Z,99.90
2022-11-26T17:22:21.819Z,99.90
2022-11-26T17:24:51.798Z,99.90
2022-11-26T17:27:23.416Z,99.90
2022-11-26T17:29:51.779Z,99.90
2022-11-26T17:32:20.991Z,99.90
2022-11-26T17:34:49.350Z,99.90
2022-11-26T17:37:24.125Z,99.90
2022-11-26T17:39:53.786Z,99.90
2022-11-26T17:42:23.968Z,99.90
2022-11-26T17:44:53.003Z,99.90
2022-11-26T17:47:24.935Z,99.90
2022-11-26T17:49:53.710Z,99.90
2022-11-26T17:52:23.040Z,99.90
2022-11-26T17:54:51.443Z,99.90
2022-11-26T17:57:22.940Z,99.90
2022-11-26T17:59:51.384Z,99.90
2022-11-26T18:02:19.777Z,99.90
2022-11-26T18:04:48.140Z,99.90
2022-11-26T18:07:19.425Z,99.90
2022-11-26T18:09:48.049Z,99.90
2022-11-26T18:12:24.582Z,99.90
2022-11-26T18:14:55.490Z,99.90
2022-11-26T18:17:24.051Z,99.90
2022-11-26T18:19:52.448Z,99.90
2022-11-26T18:22:23.161Z,99.90
2022-11-26T18:24:56.942Z,99.90
2022-11-26T18:27:28.102Z,99.90
2022-11-26T18:29:57.764Z,99.90
2022-11-26T18:32:26.060Z,99.90
2022-11-26T18:34:54.555Z,99.90
2022-11-26T18:37:22.891Z,99.90
2022-11-26T18:39:51.138Z,99.90
2022-11-26T18:42:36.469Z,99.90
2022-11-26T18:45:10.245Z,99.90
2022-11-26T18:47:38.669Z,99.90
2022-11-26T18:50:08.381Z,99.90
2022-11-26T18:52:36.811Z,99.90
2022-11-26T18:55:08.221Z,99.90
2022-11-26T18:57:36.730Z,99.90
2022-11-26T19:00:08.877Z,99.90
2022-11-26T19:02:37.336Z,99.90
2022-11-26T19:05:06.260Z,99.90
2022-11-26T19:07:34.957Z,99.90
2022-11-26T19:10:03.739Z,99.90
2022-11-26T19:12:32.072Z,99.90
2022-11-26T19:15:00.323Z,99.90
2022-11-26T19:17:29.969Z,99.90
2022-11-26T19:19:58.292Z,99.90
2022-11-26T19:22:26.704Z,99.90
2022-11-26T19:24:55.164Z,99.90
2022-11-26T19:27:23.500Z,99.90
2022-11-26T19:29:51.762Z,99.90
2022-11-26T19:32:20.019Z,99.90
2022-11-26T19:34:49.763Z,99.90
2022-11-26T19:37:18.052Z,99.90
2022-11-26T19:39:46.390Z,99.90
2022-11-26T19:42:14.701Z,99.90
2022-11-26T19:44:43.139Z,99.90
2022-11-26T19:47:11.491Z,99.90
2022-11-26T19:49:40.065Z,99.90
2022-11-26T19:52:09.871Z,99.90
2022-11-26T19:54:38.182Z,99.90
2022-11-26T19:57:07.260Z,99.90
2022-11-26T19:59:35.632Z,99.90
2022-11-26T20:02:03.970Z,99.90
2022-11-26T20:04:32.365Z,99.90
2022-11-26T20:07:00.629Z,99.90
2022-11-26T20:09:30.334Z,99.90
2022-11-26T20:11:58.861Z,99.90
2022-11-26T20:14:27.116Z,99.90
2022-11-26T20:17:00.672Z,99.90
2022-11-26T20:19:29.652Z,99.90
2022-11-26T20:21:57.972Z,99.90
2022-11-26T20:24:26.381Z,99.90
2022-11-26T20:26:56.150Z,99.90
2022-11-26T20:29:25.352Z,99.90
2022-11-26T20:31:54.440Z,99.90
2022-11-26T20:34:24.470Z,99.90
2022-11-26T20:36:53.124Z,99.90
2022-11-26T20:39:23.983Z,99.90
2022-11-26T20:41:52.620Z,99.90
2022-11-26T20:44:23.147Z,99.90
2022-11-26T20:46:51.563Z,99.90
2022-11-26T20:49:19.926Z,99.90
2022-11-26T20:51:48.212Z,99.90
2022-11-26T20:54:16.623Z,99.90
2022-11-26T20:56:44.901Z,99.90
2022-11-26T20:59:13.167Z,99.90
2022-11-26T21:01:42.876Z,99.90
2022-11-26T21:04:11.222Z,99.90
2022-11-26T21:06:42.501Z,99.90
2022-11-26T21:09:13.325Z,99.90
2022-11-26T21:11:42.289Z,99.90
2022-11-26T21:14:14.807Z,99.90
2022-11-26T21:16:45.026Z,99.90
2022-11-26T21:19:14.023Z,99.90
2022-11-26T21:21:43.062Z,99.90
2022-11-26T21:24:11.366Z,99.90
2022-11-26T21:26:39.941Z,99.90
2022-11-26T21:29:08.281Z,99.90
2022-11-26T21:31:36.621Z,99.90
2022-11-26T21:34:08.342Z,99.90
2022-11-26T21:36:37.729Z,99.90
2022-11-26T21:39:07.164Z,99.90
2022-11-26T21:41:35.701Z,99.90
2022-11-26T21:44:04.357Z,99.90
2022-11-26T21:46:38.359Z,99.90
2022-11-26T21:49:08.635Z,99.90
2022-11-26T21:51:37.249Z,99.90
2022-11-26T21:54:05.910Z,99.90
2022-11-26T21:56:34.715Z,99.90
2022-11-26T21:59:03.482Z,99.90
2022-11-26T22:01:33.901Z,99.90
2022-11-26T22:04:05.032Z,99.90
2022-11-26T22:06:35.004Z,99.90
2022-11-26T22:09:03.518Z,99.90
2022-11-26T22:11:33.929Z,99.90
2022-11-26T22:14:02.477Z,99.90
2022-11-26T22:16:31.894Z,99.90
2022-11-26T22:19:01.211Z,99.90
2022-11-26T22:21:31.834Z,99.90
2022-11-26T22:24:02.980Z,99.90
2022-11-26T22:26:32.617Z,99.90
2022-11-26T22:29:01.583Z,99.90
2022-11-26T22:31:32.001Z,99.90
2022-11-26T22:34:02.081Z,99.90
2022-11-26T22:36:30.843Z,99.90
2022-11-26T22:38:59.793Z,99.90
2022-11-26T22:41:29.450Z,99.90
2022-11-26T22:44:00.209Z,99.90
2022-11-26T22:46:28.592Z,99.90
2022-11-26T22:48:59.203Z,99.90
2022-11-26T22:51:29.521Z,99.90
2022-11-26T22:53:59.392Z,99.90
2022-11-26T22:56:29.693Z,99.90
2022-11-26T22:58:58.148Z,99.90
2022-11-26T23:01:28.233Z,99.90
2022-11-26T23:03:59.437Z,99.90
2022-11-26T23:06:31.198Z,99.90
2022-11-26T23:09:00.702Z,99.90
2022-11-26T23:11:34.959Z,99.90
2022-11-26T23:14:05.015Z,99.90
2022-11-26T23:16:33.683Z,99.90
2022-11-26T23:19:02.066Z,99.90
2022-11-26T23:21:32.358Z,99.90
2022-11-26T23:24:00.871Z,99.90
2022-11-26T23:26:33.198Z,99.90
2022-11-26T23:29:03.331Z,99.90
2022-11-26T23:31:33.934Z,99.90
2022-11-26T23:34:02.880Z,99.90
2022-11-26T23:36:32.139Z,99.90
2022-11-26T23:39:01.702Z,99.90
2022-11-26T23:41:31.480Z,99.90
2022-11-26T23:43:59.853Z,99.90
2022-11-26T23:46:31.023Z,99.90
2022-11-26T23:48:59.914Z,99.90
2022-11-26T23:51:30.198Z,99.90
2022-11-26T23:53:58.636Z,99.90
2022-11-26T23:56:28.910Z,99.90
2022-11-26T23:59:01.643Z,99.90
